Time;durP1;ratioP1;P1;durP2;ratioP2;P2;SDS_P1;SDS_P2;PMS_P1;PMS_P2;Temp;Humidity;BMP_temperature;BMP_pressure;BME280_temperature;BME280_humidity;BME280_pressure;Samples;Min_cycle;Max_cycle;Signal;HPM_P1;HPM_P2
2024/04/04 00:00:23;;;;;;;2.47;0.60;;;;;;;10.63;100.00;96498.28;4981296;28;20414;-69
2024/04/04 00:02:50;;;;;;;3.53;1.35;;;;;;;10.67;100.00;96496.38;5003891;28;20037;-69
2024/04/04 00:05:16;;;;;;;2.22;0.80;;;;;;;10.70;100.00;96490.94;4997073;28;20116;-69
2024/04/04 00:07:42;;;;;;;1.58;0.80;;;;;;;10.79;100.00;96493.41;5004206;28;20448;-69
2024/04/04 00:10:07;;;;;;;2.72;0.60;;;;;;;10.70;100.00;96488.19;5001042;28;20091;-69
2024/04/04 00:12:32;;;;;;;1.52;0.55;;;;;;;10.66;100.00;96492.03;4986893;28;20448;-68
2024/04/04 00:14:58;;;;;;;4.70;0.80;;;;;;;10.72;100.00;96498.78;5003483;28;20038;-69
2024/04/04 00:17:24;;;;;;;2.60;1.25;;;;;;;10.71;100.00;96492.53;4999507;28;20045;-70
2024/04/04 00:19:49;;;;;;;2.22;0.60;;;;;;;10.64;100.00;96497.09;5005782;28;20050;-67
2024/04/04 00:22:14;;;;;;;1.20;0.50;;;;;;;10.62;100.00;96499.44;5001098;28;20038;-66
2024/04/04 00:24:40;;;;;;;2.05;0.60;;;;;;;10.64;100.00;96500.66;5004375;28;20038;-67
2024/04/04 00:27:06;;;;;;;1.67;0.70;;;;;;;10.59;100.00;96495.50;4999334;28;20169;-68
2024/04/04 00:29:31;;;;;;;2.20;0.68;;;;;;;10.58;100.00;96496.66;5006223;28;20129;-68
2024/04/04 00:31:57;;;;;;;1.40;0.60;;;;;;;10.59;100.00;96509.19;5005086;28;20145;-69
2024/04/04 00:34:22;;;;;;;1.63;0.55;;;;;;;10.60;100.00;96499.78;4982504;28;20287;-70
2024/04/04 00:36:48;;;;;;;1.75;1.00;;;;;;;10.58;100.00;96507.59;5002238;28;20800;-70
2024/04/04 00:39:14;;;;;;;5.60;0.80;;;;;;;10.63;100.00;96501.81;4997963;28;20049;-69
2024/04/04 00:41:40;;;;;;;2.17;0.70;;;;;;;10.45;100.00;96498.81;5002854;28;20049;-68
2024/04/04 00:44:06;;;;;;;1.27;0.63;;;;;;;10.58;100.00;96496.66;4980935;28;20124;-67
2024/04/04 00:46:33;;;;;;;3.25;0.60;;;;;;;10.40;100.00;96492.88;5003292;28;20574;-66
2024/04/04 00:49:01;;;;;;;2.97;0.80;;;;;;;10.31;100.00;96493.16;5003187;28;20048;-70
2024/04/04 00:51:27;;;;;;;2.13;0.68;;;;;;;10.29;100.00;96506.41;4997424;28;20045;-69
2024/04/04 00:53:54;;;;;;;2.10;0.63;;;;;;;10.20;100.00;96511.34;5002331;28;20112;-69
2024/04/04 00:56:20;;;;;;;3.05;0.70;;;;;;;10.17;100.00;96512.06;4979926;28;20077;-70
2024/04/04 00:58:46;;;;;;;2.47;0.60;;;;;;;10.10;100.00;96516.28;4984133;28;20085;-69
2024/04/04 01:01:14;;;;;;;2.05;0.73;;;;;;;10.11;100.00;96519.81;4996751;28;20044;-67
2024/04/04 01:03:40;;;;;;;1.85;0.60;;;;;;;10.13;100.00;96522.97;5001429;28;20045;-70
2024/04/04 01:06:06;;;;;;;1.13;0.60;;;;;;;10.10;100.00;96529.16;4995870;28;20129;-69
2024/04/04 01:08:33;;;;;;;2.33;0.65;;;;;;;10.08;100.00;96523.28;5000658;28;20092;-70
2024/04/04 01:10:58;;;;;;;2.28;0.57;;;;;;;10.13;100.00;96521.00;5002270;28;20050;-67
2024/04/04 01:13:24;;;;;;;2.58;0.60;;;;;;;10.08;100.00;96515.88;4997004;28;20052;-68
2024/04/04 01:15:50;;;;;;;2.67;0.80;;;;;;;10.01;100.00;96523.97;5000789;28;20653;-68
2024/04/04 01:18:19;;;;;;;4.70;0.73;;;;;;;9.92;100.00;96520.69;4996756;28;20393;-73
2024/04/04 01:20:45;;;;;;;1.30;0.77;;;;;;;9.91;100.00;96528.09;5001069;28;20493;-70
2024/04/04 01:23:10;;;;;;;1.55;0.60;;;;;;;9.86;100.00;96522.94;4996672;28;20080;-67
2024/04/04 01:25:35;;;;;;;2.00;0.60;;;;;;;9.97;100.00;96527.81;4983392;28;20037;-69
2024/04/04 01:28:01;;;;;;;2.22;0.47;;;;;;;9.88;100.00;96534.31;5001175;28;20132;-67
2024/04/04 01:30:26;;;;;;;1.20;0.75;;;;;;;9.93;100.00;96531.25;4996803;28;20040;-70
2024/04/04 01:32:52;;;;;;;1.73;0.70;;;;;;;9.96;100.00;96529.75;5001048;28;20045;-69
2024/04/04 01:35:17;;;;;;;2.72;0.80;;;;;;;10.01;100.00;96532.19;4995459;28;20184;-70
2024/04/04 01:37:43;;;;;;;2.25;0.60;;;;;;;10.05;100.00;96527.56;5001289;28;20048;-68
2024/04/04 01:40:08;;;;;;;1.45;0.70;;;;;;;10.07;100.00;96525.25;4996390;28;20045;-69
2024/04/04 01:42:34;;;;;;;4.28;0.95;;;;;;;10.11;100.00;96523.34;5000493;28;20103;-67
2024/04/04 01:44:59;;;;;;;2.50;0.65;;;;;;;10.05;100.00;96519.34;5001603;28;20046;-67
2024/04/04 01:47:25;;;;;;;2.08;0.77;;;;;;;9.93;100.00;96527.75;4994961;28;20042;-69
2024/04/04 01:49:50;;;;;;;1.38;0.60;;;;;;;9.84;100.00;96519.00;5000680;28;20054;-69
2024/04/04 01:52:16;;;;;;;1.70;1.13;;;;;;;9.87;100.00;96521.00;4995380;28;20331;-68
2024/04/04 01:54:41;;;;;;;1.17;0.70;;;;;;;9.83;100.00;96528.34;5001312;28;20045;-69
2024/04/04 01:57:06;;;;;;;1.40;0.50;;;;;;;9.80;100.00;96540.03;4994839;28;20497;-70
2024/04/04 01:59:32;;;;;;;1.88;0.70;;;;;;;9.88;100.00;96541.72;5000677;28;20132;-68
2024/04/04 02:01:57;;;;;;;1.90;0.70;;;;;;;9.79;100.00;96533.75;5000876;28;20481;-69
2024/04/04 02:04:23;;;;;;;0.95;0.50;;;;;;;9.83;100.00;96542.03;4996326;28;20452;-69
2024/04/04 02:06:48;;;;;;;1.00;0.65;;;;;;;9.76;100.00;96545.47;4983711;28;20045;-68
2024/04/04 02:09:13;;;;;;;1.50;0.60;;;;;;;9.86;100.00;96535.84;4996477;28;20060;-69
2024/04/04 02:11:40;;;;;;;2.88;0.80;;;;;;;9.69;100.00;96539.88;5000007;28;20527;-69
2024/04/04 02:14:09;;;;;;;0.77;0.50;;;;;;;9.79;100.00;96547.44;4978676;28;20061;-69
2024/04/04 02:16:37;;;;;;;2.03;0.60;;;;;;;9.77;100.00;96538.81;5000587;28;20048;-69
2024/04/04 02:19:02;;;;;;;0.88;0.45;;;;;;;9.80;100.00;96534.56;4996649;28;20033;-63
2024/04/04 02:21:28;;;;;;;1.10;0.47;;;;;;;9.76;100.00;96542.72;4998366;28;20038;-68
2024/04/04 02:23:53;;;;;;;2.33;0.60;;;;;;;9.77;100.00;96544.28;5001145;28;20046;-68
2024/04/04 02:26:18;;;;;;;0.55;0.50;;;;;;;9.73;100.00;96537.97;4995152;28;20042;-67
2024/04/04 02:28:44;;;;;;;1.35;0.63;;;;;;;9.70;100.00;96544.16;5001297;28;20041;-68
2024/04/04 02:31:09;;;;;;;2.15;0.70;;;;;;;9.65;100.00;96549.94;4998104;28;20646;-70
2024/04/04 02:33:35;;;;;;;3.05;0.65;;;;;;;9.52;100.00;96552.06;5007961;28;20048;-68
2024/04/04 02:36:00;;;;;;;1.05;0.60;;;;;;;9.46;100.00;96546.09;4985642;28;20042;-68
2024/04/04 02:38:28;;;;;;;0.47;0.43;;;;;;;9.53;100.00;96546.22;4999203;28;20041;-69
2024/04/04 02:40:54;;;;;;;1.80;0.60;;;;;;;9.57;100.00;96544.34;5002493;28;20401;-68
2024/04/04 02:43:20;;;;;;;0.80;0.68;;;;;;;9.59;100.00;96552.19;4978204;28;20069;-70
2024/04/04 02:45:45;;;;;;;1.67;0.60;;;;;;;9.56;100.00;96550.97;4998685;28;20427;-69
2024/04/04 02:48:12;;;;;;;2.13;0.70;;;;;;;9.43;100.00;96556.97;4984155;28;20121;-65
2024/04/04 02:50:37;;;;;;;3.83;0.60;;;;;;;9.44;100.00;96558.56;5000584;28;20045;-67
2024/04/04 02:53:03;;;;;;;2.50;0.77;;;;;;;9.37;100.00;96559.22;4996244;28;20511;-65
2024/04/04 02:55:31;;;;;;;3.75;0.60;;;;;;;9.42;100.00;96556.19;4999734;28;20099;-67
2024/04/04 02:57:57;;;;;;;3.17;0.63;;;;;;;9.49;100.00;96564.50;5000431;28;20505;-70
2024/04/04 03:00:23;;;;;;;1.15;0.60;;;;;;;9.62;100.00;96550.69;4995287;28;20056;-67
2024/04/04 03:02:48;;;;;;;2.88;0.60;;;;;;;9.52;100.00;96560.25;5000568;28;20100;-67
2024/04/04 03:05:13;;;;;;;1.45;0.50;;;;;;;9.50;100.00;96557.88;4995067;28;20129;-69
2024/04/04 03:07:39;;;;;;;1.70;0.60;;;;;;;9.62;100.00;96558.88;4998923;28;20044;-70
2024/04/04 03:10:06;;;;;;;2.35;0.50;;;;;;;9.48;100.00;96562.13;4994714;28;20038;-66
2024/04/04 03:12:31;;;;;;;1.98;0.82;;;;;;;9.57;100.00;96558.00;4999230;28;20033;-70
2024/04/04 03:14:56;;;;;;;1.60;0.63;;;;;;;9.62;100.00;96565.13;4999046;28;20042;-71
2024/04/04 03:17:22;;;;;;;5.50;0.50;;;;;;;9.55;100.00;96559.53;4959985;28;20092;-68
2024/04/04 03:19:47;;;;;;;1.17;0.50;;;;;;;9.68;100.00;96563.66;5000563;28;20234;-69
2024/04/04 03:22:13;;;;;;;1.67;0.75;;;;;;;9.69;100.00;96559.00;4995094;28;20041;-70
2024/04/04 03:24:38;;;;;;;0.98;0.50;;;;;;;9.74;100.00;96553.22;4981753;28;20072;-70
2024/04/04 03:27:03;;;;;;;3.22;1.38;;;;;;;9.76;100.00;96553.66;4994686;28;20041;-69
2024/04/04 03:29:29;;;;;;;4.70;2.22;;;;;;;9.76;100.00;96548.19;5000580;28;20931;-70
2024/04/04 03:31:54;;;;;;;4.22;1.10;;;;;;;9.68;100.00;96550.00;4999956;28;20038;-71
2024/04/04 03:34:20;;;;;;;2.38;1.10;;;;;;;9.58;100.00;96553.34;4995718;28;20041;-69
2024/04/04 03:36:48;;;;;;;1.58;0.73;;;;;;;9.53;100.00;96548.97;4983700;28;20076;-70
2024/04/04 03:39:14;;;;;;;2.33;0.65;;;;;;;9.44;100.00;96542.16;4998878;28;20037;-68
2024/04/04 03:41:39;;;;;;;1.40;0.63;;;;;;;9.35;100.00;96547.84;5001166;28;20128;-70
2024/04/04 03:44:05;;;;;;;3.30;0.70;;;;;;;9.32;100.00;96545.84;4995490;28;20073;-70
2024/04/04 03:46:31;;;;;;;1.67;0.80;;;;;;;9.35;100.00;96539.66;5000329;28;20042;-70
2024/04/04 03:48:57;;;;;;;0.95;0.60;;;;;;;9.42;100.00;96542.50;5000168;28;20408;-70
2024/04/04 03:51:22;;;;;;;2.17;0.90;;;;;;;9.38;100.00;96534.25;4997767;28;20871;-71
2024/04/04 03:53:48;;;;;;;2.15;0.70;;;;;;;9.44;100.00;96525.75;5001696;28;20070;-70
2024/04/04 03:56:13;;;;;;;2.10;1.20;;;;;;;9.50;100.00;96527.03;4994194;28;20049;-70
2024/04/04 03:58:38;;;;;;;4.82;1.80;;;;;;;9.54;100.00;96528.69;4999927;28;20062;-70
2024/04/04 04:01:04;;;;;;;2.30;0.90;;;;;;;9.61;100.00;96522.53;4995116;28;20042;-69
2024/04/04 04:03:29;;;;;;;1.33;0.80;;;;;;;9.63;100.00;96522.94;5000906;28;20053;-69
2024/04/04 04:05:55;;;;;;;1.30;0.63;;;;;;;9.71;100.00;96508.25;5000143;28;20449;-70
2024/04/04 04:08:20;;;;;;;1.80;0.70;;;;;;;9.81;100.00;96506.84;4995726;28;20045;-71
2024/04/04 04:10:46;;;;;;;1.42;0.70;;;;;;;9.72;100.00;96509.03;5001349;28;20045;-70
2024/04/04 04:13:13;;;;;;;1.50;0.93;;;;;;;9.48;100.00;96513.72;4997808;28;20092;-70
2024/04/04 04:15:39;;;;;;;2.47;0.90;;;;;;;9.27;100.00;96519.56;5004252;28;20034;-70
2024/04/04 04:18:05;;;;;;;2.10;0.90;;;;;;;9.14;100.00;96518.94;4980361;28;20129;-70
2024/04/04 04:23:14;;;;;;;1.90;0.90;;;;;;;9.03;100.00;96519.91;4998982;28;20038;-70
2024/04/04 04:25:39;;;;;;;2.17;0.60;;;;;;;8.94;100.00;96511.94;5003200;28;20042;-71
2024/04/04 04:28:05;;;;;;;2.22;0.70;;;;;;;8.91;100.00;96516.19;4998540;28;20036;-69
2024/04/04 04:30:31;;;;;;;1.98;0.80;;;;;;;8.95;100.00;96516.25;5002912;28;20200;-71
2024/04/04 04:32:56;;;;;;;2.47;0.77;;;;;;;8.95;100.00;96519.00;5002966;28;20245;-70
2024/04/04 04:35:23;;;;;;;3.22;0.80;;;;;;;8.98;100.00;96515.53;4998265;28;20764;-70
2024/04/04 04:37:49;;;;;;;3.65;0.70;;;;;;;8.99;100.00;96517.13;5002476;28;20060;-70
2024/04/04 04:40:15;;;;;;;3.22;0.90;;;;;;;9.00;100.00;96518.69;4998249;28;20128;-70
2024/04/04 04:42:40;;;;;;;4.90;0.93;;;;;;;9.08;100.00;96514.94;4984325;28;20042;-70
2024/04/04 04:45:06;;;;;;;4.03;0.70;;;;;;;9.08;100.00;96511.44;4997536;28;20080;-70
2024/04/04 04:47:31;;;;;;;3.33;0.98;;;;;;;9.10;100.00;96509.13;5002160;28;20163;-70
2024/04/04 04:49:57;;;;;;;1.40;0.82;;;;;;;9.12;100.00;96520.47;5003898;28;20052;-71
2024/04/04 04:52:22;;;;;;;2.85;0.60;;;;;;;9.15;100.00;96512.34;4998431;28;20052;-70
2024/04/04 04:54:47;;;;;;;3.55;0.98;;;;;;;9.17;100.00;96520.19;5002402;28;20477;-71
2024/04/04 04:57:13;;;;;;;3.45;0.90;;;;;;;9.18;100.00;96511.63;4995590;28;20386;-70
2024/04/04 04:59:38;;;;;;;1.27;0.70;;;;;;;9.19;100.00;96513.19;5002230;28;20037;-70
2024/04/04 05:02:03;;;;;;;1.15;0.70;;;;;;;9.17;100.00;96507.31;4979441;28;20460;-67
2024/04/04 05:04:29;;;;;;;1.90;0.70;;;;;;;9.12;100.00;96502.13;5002064;28;20042;-70
2024/04/04 05:06:54;;;;;;;2.17;0.70;;;;;;;9.21;100.00;96503.84;5003171;28;20441;-71
2024/04/04 05:09:20;;;;;;;1.77;0.73;;;;;;;9.24;100.00;96495.72;4998315;28;20038;-71
2024/04/04 05:11:45;;;;;;;1.60;0.65;;;;;;;9.25;100.00;96500.03;5003465;28;20048;-71
2024/04/04 05:14:12;;;;;;;1.10;0.60;;;;;;;9.19;100.00;96513.19;4997619;28;20108;-71
2024/04/04 05:16:39;;;;;;;1.25;0.70;;;;;;;9.21;100.00;96504.63;5001324;28;20558;-71
2024/04/04 05:19:04;;;;;;;3.92;0.80;;;;;;;9.22;100.00;96514.44;4996851;28;20129;-71
2024/04/04 05:21:30;;;;;;;2.50;0.80;;;;;;;9.23;100.00;96513.25;5001631;28;20136;-71
2024/04/04 05:23:55;;;;;;;1.90;0.95;;;;;;;9.53;100.00;96515.38;5001556;28;20038;-71
2024/04/04 05:26:20;;;;;;;2.20;0.70;;;;;;;10.02;100.00;96513.81;4979980;28;20156;-70
2024/04/04 05:28:47;;;;;;;1.88;0.70;;;;;;;10.43;100.00;96519.53;5002337;28;20496;-70
2024/04/04 05:31:13;;;;;;;1.48;0.60;;;;;;;10.70;100.00;96514.81;4978931;28;20088;-69
2024/04/04 05:33:38;;;;;;;1.83;0.60;;;;;;;10.53;100.00;96521.63;5001577;28;20037;-70
2024/04/04 05:36:04;;;;;;;1.83;0.85;;;;;;;10.51;100.00;96512.97;4996165;28;20041;-70
2024/04/04 05:38:29;;;;;;;2.13;0.60;;;;;;;10.29;100.00;96517.34;4983694;28;20450;-70
2024/04/04 05:40:55;;;;;;;1.73;0.70;;;;;;;10.49;100.00;96518.81;5001156;28;20034;-69
2024/04/04 05:43:21;;;;;;;3.88;0.60;;;;;;;10.23;100.00;96521.56;4996816;28;20111;-69
2024/04/04 05:45:46;;;;;;;2.83;1.15;;;;;;;10.01;100.00;96515.78;5000586;28;20042;-69
2024/04/04 05:48:12;;;;;;;2.72;0.80;;;;;;;9.97;100.00;96514.91;4996820;28;20045;-70
2024/04/04 05:50:37;;;;;;;3.25;0.70;;;;;;;9.77;100.00;96511.47;5000499;28;20049;-70
2024/04/04 05:53:03;;;;;;;0.88;0.60;;;;;;;9.67;100.00;96523.00;4982189;28;20104;-69
2024/04/04 05:55:29;;;;;;;2.22;0.52;;;;;;;9.66;100.00;96515.97;4985121;28;20108;-70
2024/04/04 05:57:55;;;;;;;3.30;1.13;;;;;;;9.67;100.00;96510.13;5005019;28;20472;-71
2024/04/04 06:00:20;;;;;;;5.07;0.93;;;;;;;9.79;100.00;96509.16;4981611;28;20263;-70
2024/04/04 06:02:48;;;;;;;2.13;0.90;;;;;;;10.18;100.00;96502.72;5002233;28;20064;-68
2024/04/04 06:05:13;;;;;;;4.63;0.77;;;;;;;11.04;100.00;96506.59;4996539;28;20073;-69
2024/04/04 06:07:39;;;;;;;2.58;0.65;;;;;;;12.05;100.00;96513.84;5000242;28;20042;-69
2024/04/04 06:10:05;;;;;;;2.72;0.60;;;;;;;12.73;100.00;96508.78;4996410;28;20100;-68
2024/04/04 06:12:30;;;;;;;2.55;0.68;;;;;;;13.47;100.00;96517.69;5001578;28;20041;-68
2024/04/04 06:14:56;;;;;;;1.38;0.30;;;;;;;13.85;100.00;96520.91;5001489;28;20030;-70
2024/04/04 06:17:22;;;;;;;1.05;0.50;;;;;;;14.08;100.00;96527.97;4995649;28;20499;-70
2024/04/04 06:19:47;;;;;;;3.10;0.70;;;;;;;14.71;100.00;96522.78;5002345;28;20046;-69
2024/04/04 06:22:13;;;;;;;1.42;0.50;;;;;;;15.53;100.00;96534.66;4997144;28;20061;-69
2024/04/04 06:24:38;;;;;;;4.40;0.50;;;;;;;15.62;99.95;96532.25;5001033;28;20448;-69
2024/04/04 06:27:04;;;;;;;0.85;0.38;;;;;;;15.74;99.22;96529.03;4997745;28;20117;-69
2024/04/04 06:29:30;;;;;;;1.73;0.55;;;;;;;15.79;97.54;96536.09;4982276;28;20095;-70
2024/04/04 06:31:57;;;;;;;1.05;0.50;;;;;;;16.22;95.12;96531.06;4983077;28;20038;-68
2024/04/04 06:34:23;;;;;;;2.28;0.50;;;;;;;16.89;88.76;96532.78;4996842;28;20383;-68
2024/04/04 06:36:48;;;;;;;3.83;0.40;;;;;;;16.21;90.20;96539.75;4983257;28;20052;-69
2024/04/04 06:39:15;;;;;;;3.58;0.50;;;;;;;15.19;99.61;96543.50;4996285;28;20034;-70
2024/04/04 06:41:42;;;;;;;2.45;0.60;;;;;;;14.08;100.00;96536.22;5000284;28;20060;-67
2024/04/04 06:44:09;;;;;;;2.75;0.80;;;;;;;13.72;100.00;96541.69;5003695;28;20141;-68
2024/04/04 06:46:34;;;;;;;5.05;0.70;;;;;;;13.57;100.00;96551.91;5021877;28;20077;-69
2024/04/04 06:48:59;;;;;;;1.75;0.43;;;;;;;13.91;100.00;96538.59;5021399;28;20034;-68
2024/04/04 06:51:25;;;;;;;3.92;1.00;;;;;;;14.86;100.00;96535.34;4996431;28;20616;-68
2024/04/04 06:53:50;;;;;;;2.22;0.80;;;;;;;14.49;100.00;96550.34;5008424;28;20030;-70
2024/04/04 06:56:16;;;;;;;2.92;0.70;;;;;;;14.73;100.00;96542.50;4977997;28;20038;-68
2024/04/04 06:58:41;;;;;;;2.22;0.73;;;;;;;14.99;100.00;96543.19;4999279;28;20424;-66
2024/04/04 07:01:07;;;;;;;2.83;0.80;;;;;;;14.48;100.00;96539.75;4995504;28;20042;-67
2024/04/04 07:03:32;;;;;;;4.65;0.70;;;;;;;13.77;100.00;96538.56;5001711;28;20057;-67
2024/04/04 07:05:58;;;;;;;4.47;0.70;;;;;;;13.65;100.00;96537.00;5003872;28;20072;-66
2024/04/04 07:08:23;;;;;;;2.55;0.60;;;;;;;13.44;100.00;96534.97;4980936;28;20125;-65
2024/04/04 07:10:49;;;;;;;3.97;0.75;;;;;;;13.51;100.00;96537.75;5000211;28;20042;-66
2024/04/04 07:13:16;;;;;;;4.20;0.75;;;;;;;13.70;100.00;96542.13;4975528;28;20053;-67
2024/04/04 07:15:42;;;;;;;4.13;0.82;;;;;;;14.45;100.00;96533.06;4999385;28;20460;-67
2024/04/04 07:18:09;;;;;;;2.33;0.50;;;;;;;14.42;100.00;96546.84;4977828;28;20120;-65
2024/04/04 07:20:39;;;;;;;4.22;0.47;;;;;;;14.43;100.00;96546.44;4981010;28;20045;-65
2024/04/04 07:23:05;;;;;;;3.60;0.70;;;;;;;14.47;100.00;96549.97;4994278;28;20034;-65
2024/04/04 07:25:31;;;;;;;2.80;0.73;;;;;;;14.54;100.00;96543.66;4998798;28;20056;-65
2024/04/04 07:27:57;;;;;;;3.63;0.70;;;;;;;14.36;100.00;96548.44;5001430;28;20042;-65
2024/04/04 07:30:22;;;;;;;2.95;0.88;;;;;;;14.22;100.00;96540.94;4993598;28;20570;-67
2024/04/04 07:32:47;;;;;;;2.75;0.40;;;;;;;14.29;100.00;96544.47;5000001;28;20587;-68
2024/04/04 07:35:13;;;;;;;5.50;1.00;;;;;;;14.54;100.00;96544.44;4995353;28;20038;-66
2024/04/04 07:37:39;;;;;;;2.95;0.88;;;;;;;14.80;100.00;96547.19;4999704;28;20696;-66
2024/04/04 07:40:05;;;;;;;3.95;0.90;;;;;;;14.93;100.00;96551.09;4995075;28;20064;-66
2024/04/04 07:42:31;;;;;;;4.13;0.70;;;;;;;15.73;95.82;96554.28;5000024;28;20100;-68
2024/04/04 07:44:56;;;;;;;2.03;0.90;;;;;;;16.24;90.98;96553.53;4981474;28;20041;-67
2024/04/04 07:47:21;;;;;;;2.83;0.60;;;;;;;16.36;87.80;96552.22;4998085;28;20240;-67
2024/04/04 07:49:47;;;;;;;2.95;0.77;;;;;;;16.26;86.98;96558.66;5001937;28;20123;-65
2024/04/04 07:52:12;;;;;;;6.20;0.73;;;;;;;16.11;87.16;96560.72;4998612;28;20061;-67
2024/04/04 07:54:39;;;;;;;7.60;0.90;;;;;;;16.07;87.47;96550.91;5003328;28;20041;-66
2024/04/04 07:57:05;;;;;;;3.78;0.90;;;;;;;16.23;87.34;96543.66;4998278;28;20033;-65
2024/04/04 07:59:30;;;;;;;3.45;0.80;;;;;;;16.42;86.13;96541.50;5005608;28;20677;-65
2024/04/04 08:01:56;;;;;;;2.95;0.63;;;;;;;16.35;84.38;96536.84;5004454;28;20045;-67
2024/04/04 08:04:21;;;;;;;2.53;0.65;;;;;;;16.36;84.39;96543.16;5001949;28;20388;-65
2024/04/04 08:06:47;;;;;;;5.53;1.17;;;;;;;16.31;82.05;96544.38;5004705;28;20100;-65
2024/04/04 08:09:13;;;;;;;4.65;0.88;;;;;;;16.60;81.07;96542.16;4998780;28;20042;-67
2024/04/04 08:11:38;;;;;;;4.57;1.00;;;;;;;16.85;77.61;96541.13;5002430;28;20140;-66
2024/04/04 08:14:03;;;;;;;3.65;1.17;;;;;;;17.61;74.11;96546.53;4998383;28;20084;-64
2024/04/04 08:16:29;;;;;;;5.03;1.00;;;;;;;18.35;68.98;96545.84;5003172;28;20196;-67
2024/04/04 08:18:55;;;;;;;5.03;1.40;;;;;;;17.98;69.39;96547.59;5004539;28;20133;-67
2024/04/04 08:21:21;;;;;;;2.80;0.80;;;;;;;18.44;66.59;96556.34;4981866;28;20223;-67
2024/04/04 08:23:46;;;;;;;3.42;0.90;;;;;;;18.14;66.97;96560.81;4985554;28;20405;-65
2024/04/04 08:26:12;;;;;;;5.72;1.25;;;;;;;17.89;66.63;96558.41;4998015;28;20408;-65
2024/04/04 08:28:38;;;;;;;3.17;1.00;;;;;;;17.67;70.82;96561.47;5003893;28;20041;-65
2024/04/04 08:31:06;;;;;;;2.05;0.60;;;;;;;17.70;70.56;96562.59;4999047;28;20037;-65
2024/04/04 08:33:32;;;;;;;4.70;0.98;;;;;;;17.62;70.25;96559.16;4984439;28;20034;-65
2024/04/04 08:35:58;;;;;;;7.18;1.65;;;;;;;17.88;68.84;96554.88;5002361;28;20056;-67
2024/04/04 08:38:24;;;;;;;4.13;1.08;;;;;;;17.80;68.17;96560.91;4999200;28;20807;-66
2024/04/04 08:40:49;;;;;;;4.03;0.80;;;;;;;17.61;70.15;96559.56;5003803;28;20041;-65
2024/04/04 08:43:18;;;;;;;4.78;0.95;;;;;;;17.50;71.17;96557.75;4997984;28;20485;-67
2024/04/04 08:45:47;;;;;;;4.17;0.80;;;;;;;17.76;68.87;96556.19;5002936;28;20053;-66
2024/04/04 08:48:17;;;;;;;4.40;1.25;;;;;;;17.72;67.94;96557.47;4986233;28;20181;-66
2024/04/04 08:50:45;;;;;;;;;;;;;;;17.68;66.61;96551.16;5009805;28;20045;-67
2024/04/04 08:53:16;;;;;;;4.88;0.68;;;;;;;17.76;67.08;96547.88;4982286;28;20068;-65
2024/04/04 08:55:43;;;;;;;7.10;1.05;;;;;;;17.43;69.71;96548.72;5002959;28;20049;-65
2024/04/04 08:58:12;;;;;;;4.63;1.13;;;;;;;17.46;71.89;96545.16;4996358;28;20041;-66
2024/04/04 09:00:37;;;;;;;6.07;0.90;;;;;;;17.44;70.42;96551.09;5002463;28;20042;-67
2024/04/04 09:03:03;;;;;;;5.50;1.35;;;;;;;17.31;70.08;96544.56;4998376;28;20037;-66
2024/04/04 09:05:28;;;;;;;6.75;1.20;;;;;;;17.16;69.07;96544.72;5002373;28;20077;-66
2024/04/04 09:07:54;;;;;;;6.25;1.00;;;;;;;16.96;68.50;96539.03;5002757;28;20041;-65
2024/04/04 09:10:19;;;;;;;2.70;0.52;;;;;;;16.21;74.69;96528.69;4999335;28;20038;-65
2024/04/04 09:12:45;;;;;;;4.32;0.73;;;;;;;16.62;70.88;96533.44;5002374;28;20049;-65
2024/04/04 09:15:11;;;;;;;6.18;1.20;;;;;;;16.68;69.70;96534.56;4998808;28;20133;-67
2024/04/04 09:17:36;;;;;;;3.33;0.88;;;;;;;16.51;70.30;96541.03;5004969;28;20650;-66
2024/04/04 09:20:02;;;;;;;4.60;1.20;;;;;;;16.21;72.20;96531.47;5004865;28;20034;-66
2024/04/04 09:22:28;;;;;;;6.32;1.20;;;;;;;16.54;71.74;96529.19;5008712;28;20042;-66
2024/04/04 09:24:59;;;;;;;4.38;1.00;;;;;;;16.67;71.54;96526.66;4986426;28;20137;-65
2024/04/04 09:27:25;;;;;;;4.50;0.75;;;;;;;16.65;72.98;96521.53;4996970;28;20054;-66
2024/04/04 09:29:51;;;;;;;2.78;0.80;;;;;;;16.49;70.73;96526.84;5000742;28;20557;-65
2024/04/04 09:32:19;;;;;;;5.95;1.05;;;;;;;16.70;69.06;96523.09;5002583;28;20068;-66
2024/04/04 09:34:45;;;;;;;2.65;0.70;;;;;;;16.91;68.06;96530.41;5003591;28;20092;-65
2024/04/04 09:37:14;;;;;;;5.68;1.20;;;;;;;17.29;66.66;96522.81;4997189;28;20052;-66
2024/04/04 09:39:41;;;;;;;7.22;1.40;;;;;;;17.54;64.25;96528.03;5002172;28;20556;-66
2024/04/04 09:42:07;;;;;;;10.25;2.63;;;;;;;17.77;61.62;96526.50;4996898;28;20045;-66
2024/04/04 09:44:33;;;;;;;4.43;1.10;;;;;;;17.65;62.41;96527.09;4965252;28;20049;-66
2024/04/04 09:47:03;;;;;;;6.65;1.10;;;;;;;17.85;62.36;96532.72;5001430;28;20041;-66
2024/04/04 09:49:30;;;;;;;3.30;0.70;;;;;;;17.71;61.78;96534.50;4983273;28;20042;-66
2024/04/04 09:51:58;;;;;;;2.65;0.75;;;;;;;17.73;61.92;96529.31;5002205;28;20076;-66
2024/04/04 09:54:24;;;;;;;3.47;0.65;;;;;;;17.55;63.26;96532.34;4997786;28;20627;-66
2024/04/04 09:56:51;;;;;;;3.58;0.70;;;;;;;17.49;63.58;96522.16;5001840;28;20441;-66
2024/04/04 09:59:27;;;;;;;8.70;1.65;;;;;;;17.30;65.64;96535.44;4997528;28;20053;-66
2024/04/04 10:02:00;;;;;;;1.58;0.50;;;;;;;17.46;67.45;96529.31;5001594;28;20465;-67
2024/04/04 10:04:37;;;;;;;2.60;0.70;;;;;;;17.53;66.10;96520.91;4980841;28;20033;-66
2024/04/04 10:07:04;;;;;;;6.43;1.40;;;;;;;17.67;66.19;96525.47;4998175;28;20468;-64
2024/04/04 10:09:41;;;;;;;4.75;1.25;;;;;;;17.73;65.64;96518.25;5000924;28;20100;-66
2024/04/04 10:12:14;;;;;;;3.88;0.65;;;;;;;17.94;64.20;96528.25;4995567;28;20627;-66
2024/04/04 10:14:53;;;;;;;1.92;0.55;;;;;;;18.11;62.98;96517.31;5001367;28;20030;-66
2024/04/04 10:17:20;;;;;;;1.55;0.65;;;;;;;18.31;62.54;96517.38;4997797;28;20392;-67
2024/04/04 10:19:46;;;;;;;6.05;0.80;;;;;;;18.41;62.86;96518.41;5002431;28;20059;-66
2024/04/04 10:22:18;;;;;;;4.45;1.02;;;;;;;18.29;61.17;96528.09;4997018;28;20034;-66
2024/04/04 10:24:43;;;;;;;2.00;0.68;;;;;;;18.36;60.11;96519.66;5001022;28;20038;-66
2024/04/04 10:27:12;;;;;;;2.08;0.57;;;;;;;18.27;59.72;96517.41;4996383;28;20115;-67
2024/04/04 10:29:38;;;;;;;3.03;0.60;;;;;;;18.46;58.28;96515.91;4982682;28;20077;-66
2024/04/04 10:32:08;;;;;;;2.20;0.73;;;;;;;19.08;56.78;96521.13;4994992;28;20033;-64
2024/04/04 10:34:34;;;;;;;3.05;0.75;;;;;;;18.64;55.61;96515.59;4999748;28;20045;-67
2024/04/04 10:36:59;;;;;;;4.55;0.93;;;;;;;18.85;55.60;96511.69;5000740;28;20951;-66
2024/04/04 10:39:25;;;;;;;4.00;0.70;;;;;;;17.67;56.93;96516.38;4977944;28;20148;-66
2024/04/04 10:41:54;;;;;;;5.38;0.68;;;;;;;17.32;58.80;96515.66;5000253;28;20038;-70
2024/04/04 10:44:21;;;;;;;1.00;0.50;;;;;;;17.39;59.94;96516.38;4999195;28;20125;-65
2024/04/04 10:46:48;;;;;;;4.82;0.70;;;;;;;17.35;60.02;96514.84;5000845;28;20164;-65
2024/04/04 10:49:15;;;;;;;3.08;0.50;;;;;;;17.42;59.28;96525.81;4996824;28;20108;-66
2024/04/04 10:52:01;;;;;;;4.88;0.80;;;;;;;17.32;60.02;96516.47;5000808;28;20038;-66
2024/04/04 10:54:31;;;;;;;2.28;0.60;;;;;;;17.47;59.78;96513.50;4997489;28;20042;-65
2024/04/04 10:56:57;;;;;;;;;;;;;;;18.33;59.27;96518.53;5011155;28;20042;-67
2024/04/04 10:59:22;;;;;;;2.60;0.50;;;;;;;19.15;56.70;96517.44;5011437;28;20051;-67
2024/04/04 11:01:48;;;;;;;2.20;0.50;;;;;;;20.08;54.65;96514.59;5015469;28;20050;-66
2024/04/04 11:04:15;;;;;;;3.97;0.60;;;;;;;19.72;52.24;96521.75;4996133;28;20038;-66
2024/04/04 11:06:41;;;;;;;1.95;0.65;;;;;;;19.89;52.25;96516.25;5002016;28;20064;-65
2024/04/04 11:09:15;;;;;;;1.85;0.50;;;;;;;19.85;50.87;96514.31;4978502;28;20794;-67
2024/04/04 11:11:45;;;;;;;2.88;0.50;;;;;;;19.73;51.01;96516.97;5004905;28;20042;-65
2024/04/04 11:14:11;;;;;;;3.38;0.70;;;;;;;19.55;51.43;96509.03;4996189;28;20400;-65
2024/04/04 11:16:43;;;;;;;2.42;0.68;;;;;;;18.97;52.46;96506.69;4999322;28;20041;-65
2024/04/04 11:19:12;;;;;;;1.52;0.35;;;;;;;18.21;54.53;96516.34;4995310;28;20564;-66
2024/04/04 11:21:38;;;;;;;3.72;0.43;;;;;;;18.25;54.67;96505.19;4998671;28;20415;-66
2024/04/04 11:24:04;;;;;;;2.55;0.68;;;;;;;17.95;56.17;96513.22;4978638;28;20042;-66
2024/04/04 11:26:30;;;;;;;2.67;0.60;;;;;;;17.90;58.82;96504.59;5000395;28;20046;-66
2024/04/04 11:28:58;;;;;;;2.80;0.70;;;;;;;18.13;58.02;96507.38;4982566;28;20033;-66